sensor_id;sensor_type;location;lat;lon;timestamp;pressure;altitude;pressure_sealevel;temperature;humidity
70909;BME280;58554;52.006;5.926;2023-12-22T00:01:14;99285.47;;;5.08;83.96
70909;BME280;58554;52.006;5.926;2023-12-22T00:03:41;99283.59;;;5.10;83.75
70909;BME280;58554;52.006;5.926;2023-12-22T00:06:08;99290.44;;;5.13;83.78
70909;BME280;58554;52.006;5.926;2023-12-22T00:08:37;99298.19;;;5.14;83.75
70909;BME280;58554;52.006;5.926;2023-12-22T00:11:04;99288.38;;;5.18;83.89
70909;BME280;58554;52.006;5.926;2023-12-22T00:13:30;99303.09;;;5.20;83.74
70909;BME280;58554;52.006;5.926;2023-12-22T00:15:57;99301.22;;;5.22;83.78
70909;BME280;58554;52.006;5.926;2023-12-22T00:18:23;99304.69;;;5.23;83.49
70909;BME280;58554;52.006;5.926;2023-12-22T00:20:50;99300.19;;;5.25;83.55
70909;BME280;58554;52.006;5.926;2023-12-22T00:23:16;99305.34;;;5.26;83.78
70909;BME280;58554;52.006;5.926;2023-12-22T00:25:45;99315.66;;;5.30;83.77
70909;BME280;58554;52.006;5.926;2023-12-22T00:28:12;99328.56;;;5.33;83.80
70909;BME280;58554;52.006;5.926;2023-12-22T00:30:38;99327.66;;;5.34;83.59
70909;BME280;58554;52.006;5.926;2023-12-22T00:33:05;99337.94;;;5.37;83.77
70909;BME280;58554;52.006;5.926;2023-12-22T00:35:31;99336.91;;;5.39;83.87
70909;BME280;58554;52.006;5.926;2023-12-22T00:37:57;99340.22;;;5.43;83.90
70909;BME280;58554;52.006;5.926;2023-12-22T00:40:24;99340.28;;;5.41;83.71
70909;BME280;58554;52.006;5.926;2023-12-22T00:42:53;99357.03;;;5.39;83.74
70909;BME280;58554;52.006;5.926;2023-12-22T00:45:20;99352.16;;;5.33;83.80
70909;BME280;58554;52.006;5.926;2023-12-22T00:47:46;99343.91;;;5.24;83.96
70909;BME280;58554;52.006;5.926;2023-12-22T00:50:12;99330.31;;;5.18;83.81
70909;BME280;58554;52.006;5.926;2023-12-22T00:52:39;99347.16;;;5.14;83.88
70909;BME280;58554;52.006;5.926;2023-12-22T00:55:06;99353.41;;;5.11;83.79
70909;BME280;58554;52.006;5.926;2023-12-22T00:57:33;99354.44;;;5.08;84.11
70909;BME280;58554;52.006;5.926;2023-12-22T01:00:02;99363.28;;;5.06;83.76
70909;BME280;58554;52.006;5.926;2023-12-22T01:02:29;99360.78;;;5.04;84.05
70909;BME280;58554;52.006;5.926;2023-12-22T01:04:56;99371.34;;;5.03;83.82
70909;BME280;58554;52.006;5.926;2023-12-22T01:07:22;99354.88;;;5.01;84.12
70909;BME280;58554;52.006;5.926;2023-12-22T01:09:49;99359.34;;;4.99;83.99
70909;BME280;58554;52.006;5.926;2023-12-22T01:12:15;99353.34;;;4.97;84.16
70909;BME280;58554;52.006;5.926;2023-12-22T01:14:42;99341.25;;;4.94;84.08
70909;BME280;58554;52.006;5.926;2023-12-22T01:17:11;99360.59;;;4.92;84.24
70909;BME280;58554;52.006;5.926;2023-12-22T01:19:37;99345.06;;;4.88;83.96
70909;BME280;58554;52.006;5.926;2023-12-22T01:22:04;99345.31;;;4.84;84.21
70909;BME280;58554;52.006;5.926;2023-12-22T01:24:30;99364.69;;;4.81;84.07
70909;BME280;58554;52.006;5.926;2023-12-22T01:26:56;99355.19;;;4.79;84.38
70909;BME280;58554;52.006;5.926;2023-12-22T01:29:23;99357.06;;;4.77;84.18
70909;BME280;58554;52.006;5.926;2023-12-22T01:31:49;99362.22;;;4.78;84.37
70909;BME280;58554;52.006;5.926;2023-12-22T01:34:18;99374.41;;;4.79;84.06
70909;BME280;58554;52.006;5.926;2023-12-22T01:36:45;99374.41;;;4.79;84.14
70909;BME280;58554;52.006;5.926;2023-12-22T01:39:11;99396.09;;;4.81;84.13
70909;BME280;58554;52.006;5.926;2023-12-22T01:41:38;99383.78;;;4.83;83.92
70909;BME280;58554;52.006;5.926;2023-12-22T01:44:04;99396.00;;;4.83;84.15
70909;BME280;58554;52.006;5.926;2023-12-22T01:46:31;99392.38;;;4.85;84.21
70909;BME280;58554;52.006;5.926;2023-12-22T01:49:00;99394.06;;;4.86;84.09
70909;BME280;58554;52.006;5.926;2023-12-22T01:51:31;99388.91;;;4.85;83.98
70909;BME280;58554;52.006;5.926;2023-12-22T01:54:00;99376.06;;;4.80;84.11
70909;BME280;58554;52.006;5.926;2023-12-22T01:56:27;99395.56;;;4.75;83.86
70909;BME280;58554;52.006;5.926;2023-12-22T01:58:57;99396.66;;;4.71;84.42
70909;BME280;58554;52.006;5.926;2023-12-22T02:01:27;99399.56;;;4.66;84.38
70909;BME280;58554;52.006;5.926;2023-12-22T02:03:55;99406.66;;;4.64;84.32
70909;BME280;58554;52.006;5.926;2023-12-22T02:06:24;99400.56;;;4.63;84.72
70909;BME280;58554;52.006;5.926;2023-12-22T02:08:54;99407.59;;;4.63;84.73
70909;BME280;58554;52.006;5.926;2023-12-22T02:11:20;99401.41;;;4.64;84.90
70909;BME280;58554;52.006;5.926;2023-12-22T02:13:47;99399.63;;;4.64;84.87
70909;BME280;58554;52.006;5.926;2023-12-22T02:16:20;99401.41;;;4.64;84.89
70909;BME280;58554;52.006;5.926;2023-12-22T02:18:55;99411.72;;;4.67;85.04
70909;BME280;58554;52.006;5.926;2023-12-22T02:21:25;99402.94;;;4.68;84.98
70909;BME280;58554;52.006;5.926;2023-12-22T02:23:54;99424.72;;;4.68;85.07
70909;BME280;58554;52.006;5.926;2023-12-22T02:26:26;99409.88;;;4.69;85.01
70909;BME280;58554;52.006;5.926;2023-12-22T02:29:00;99409.88;;;4.69;84.73
70909;BME280;58554;52.006;5.926;2023-12-22T02:31:35;99384.59;;;4.68;84.99
70909;BME280;58554;52.006;5.926;2023-12-22T02:34:07;99382.06;;;4.66;84.84
70909;BME280;58554;52.006;5.926;2023-12-22T02:36:38;99394.25;;;4.67;85.10
70909;BME280;58554;52.006;5.926;2023-12-22T02:39:10;99375.84;;;4.69;85.23
70909;BME280;58554;52.006;5.926;2023-12-22T02:41:41;99390.34;;;4.75;85.07
70909;BME280;58554;52.006;5.926;2023-12-22T02:44:08;99372.69;;;4.78;85.14
70909;BME280;58554;52.006;5.926;2023-12-22T02:46:35;99374.06;;;4.85;85.10
70909;BME280;58554;52.006;5.926;2023-12-22T02:49:01;99375.22;;;4.96;85.34
70909;BME280;58554;52.006;5.926;2023-12-22T02:51:28;99340.59;;;5.06;85.39
70909;BME280;58554;52.006;5.926;2023-12-22T02:53:55;99348.66;;;5.18;84.96
70909;BME280;58554;52.006;5.926;2023-12-22T02:56:24;99331.56;;;5.26;85.06
70909;BME280;58554;52.006;5.926;2023-12-22T02:58:50;99329.31;;;5.35;84.87
70909;BME280;58554;52.006;5.926;2023-12-22T03:01:17;99335.03;;;5.41;84.72
70909;BME280;58554;52.006;5.926;2023-12-22T03:03:43;99320.75;;;5.47;84.70
70909;BME280;58554;52.006;5.926;2023-12-22T03:06:09;99327.41;;;5.53;84.80
70909;BME280;58554;52.006;5.926;2023-12-22T03:08:36;99307.09;;;5.56;84.53
70909;BME280;58554;52.006;5.926;2023-12-22T03:11:03;99305.09;;;5.60;84.56
70909;BME280;58554;52.006;5.926;2023-12-22T03:13:32;99327.69;;;5.62;84.40
70909;BME280;58554;52.006;5.926;2023-12-22T03:15:58;99333.69;;;5.64;84.26
70909;BME280;58554;52.006;5.926;2023-12-22T03:18:25;99413.84;;;5.68;84.27
70909;BME280;58554;52.006;5.926;2023-12-22T03:20:51;99411.59;;;5.62;83.97
70909;BME280;58554;52.006;5.926;2023-12-22T03:23:17;99437.97;;;5.45;83.74
70909;BME280;58554;52.006;5.926;2023-12-22T03:25:44;99415.34;;;5.28;83.41
70909;BME280;58554;52.006;5.926;2023-12-22T03:28:10;99429.47;;;5.10;83.51
70909;BME280;58554;52.006;5.926;2023-12-22T03:30:39;99441.69;;;4.93;83.55
70909;BME280;58554;52.006;5.926;2023-12-22T03:33:06;99431.81;;;4.82;83.88
70909;BME280;58554;52.006;5.926;2023-12-22T03:35:32;99398.31;;;4.73;84.19
70909;BME280;58554;52.006;5.926;2023-12-22T03:37:59;99399.56;;;4.66;84.24
70909;BME280;58554;52.006;5.926;2023-12-22T03:40:25;99424.22;;;4.62;84.43
70909;BME280;58554;52.006;5.926;2023-12-22T03:42:52;99429.69;;;4.57;84.56
70909;BME280;58554;52.006;5.926;2023-12-22T03:45:18;99452.44;;;4.57;84.54
70909;BME280;58554;52.006;5.926;2023-12-22T03:47:47;99448.44;;;4.50;84.59
70909;BME280;58554;52.006;5.926;2023-12-22T03:50:14;99437.53;;;4.41;84.82
70909;BME280;58554;52.006;5.926;2023-12-22T03:52:40;99438.84;;;4.33;84.84
70909;BME280;58554;52.006;5.926;2023-12-22T03:55:07;99439.34;;;4.23;84.94
70909;BME280;58554;52.006;5.926;2023-12-22T03:57:34;99450.38;;;4.13;85.12
70909;BME280;58554;52.006;5.926;2023-12-22T04:00:00;99449.84;;;4.06;85.69
70909;BME280;58554;52.006;5.926;2023-12-22T04:02:27;99465.78;;;4.01;85.92
70909;BME280;58554;52.006;5.926;2023-12-22T04:04:56;99437.25;;;3.97;86.22
70909;BME280;58554;52.006;5.926;2023-12-22T04:07:22;99440.09;;;3.92;86.40
70909;BME280;58554;52.006;5.926;2023-12-22T04:09:49;99424.72;;;3.86;86.48
70909;BME280;58554;52.006;5.926;2023-12-22T04:12:15;99420.66;;;3.80;86.53
70909;BME280;58554;52.006;5.926;2023-12-22T04:14:42;99425.28;;;3.75;86.63
70909;BME280;58554;52.006;5.926;2023-12-22T04:17:08;99426.25;;;3.73;86.97
70909;BME280;58554;52.006;5.926;2023-12-22T04:19:36;99414.88;;;3.74;87.22
70909;BME280;58554;52.006;5.926;2023-12-22T04:22:05;99426.88;;;3.78;87.63
70909;BME280;58554;52.006;5.926;2023-12-22T04:24:31;99423.19;;;3.82;87.61
70909;BME280;58554;52.006;5.926;2023-12-22T04:26:58;99441.25;;;3.86;87.66
70909;BME280;58554;52.006;5.926;2023-12-22T04:29:24;99434.03;;;3.92;87.66
70909;BME280;58554;52.006;5.926;2023-12-22T04:31:51;99416.31;;;3.97;87.69
70909;BME280;58554;52.006;5.926;2023-12-22T04:34:17;99420.41;;;4.02;87.39
70909;BME280;58554;52.006;5.926;2023-12-22T04:36:44;99429.78;;;4.06;87.51
70909;BME280;58554;52.006;5.926;2023-12-22T04:39:13;99419.13;;;4.10;87.26
70909;BME280;58554;52.006;5.926;2023-12-22T04:41:39;99418.13;;;4.12;87.49
70909;BME280;58554;52.006;5.926;2023-12-22T04:44:06;99421.63;;;4.13;87.23
70909;BME280;58554;52.006;5.926;2023-12-22T04:46:32;99417.91;;;4.17;87.26
70909;BME280;58554;52.006;5.926;2023-12-22T04:48:59;99409.75;;;4.23;87.61
70909;BME280;58554;52.006;5.926;2023-12-22T04:51:25;99415.56;;;4.28;87.44
70909;BME280;58554;52.006;5.926;2023-12-22T04:53:51;99423.91;;;4.35;87.42
70909;BME280;58554;52.006;5.926;2023-12-22T04:56:21;99434.91;;;4.41;87.17
70909;BME280;58554;52.006;5.926;2023-12-22T04:58:47;99444.28;;;4.45;87.42
70909;BME280;58554;52.006;5.926;2023-12-22T05:01:13;99451.91;;;4.50;87.25
70909;BME280;58554;52.006;5.926;2023-12-22T05:03:40;99450.66;;;4.57;87.21
70909;BME280;58554;52.006;5.926;2023-12-22T05:06:06;99456.66;;;4.59;86.98
70909;BME280;58554;52.006;5.926;2023-12-22T05:08:33;99456.47;;;4.62;86.96
70909;BME280;58554;52.006;5.926;2023-12-22T05:11:00;99457.22;;;4.64;87.31
70909;BME280;58554;52.006;5.926;2023-12-22T05:13:29;99460.72;;;4.65;87.52
70909;BME280;58554;52.006;5.926;2023-12-22T05:15:55;99454.47;;;4.67;87.42
70909;BME280;58554;52.006;5.926;2023-12-22T05:18:22;99458.84;;;4.67;87.21
70909;BME280;58554;52.006;5.926;2023-12-22T05:20:50;99454.38;;;4.69;87.27
70909;BME280;58554;52.006;5.926;2023-12-22T05:23:16;99451.75;;;4.69;87.20
70909;BME280;58554;52.006;5.926;2023-12-22T05:25:42;99455.22;;;4.70;87.03
70909;BME280;58554;52.006;5.926;2023-12-22T05:28:09;99460.53;;;4.68;87.23
70909;BME280;58554;52.006;5.926;2023-12-22T05:30:38;99452.69;;;4.68;87.19
70909;BME280;58554;52.006;5.926;2023-12-22T05:33:05;99446.53;;;4.69;87.32
70909;BME280;58554;52.006;5.926;2023-12-22T05:35:31;99449.22;;;4.67;87.29
70909;BME280;58554;52.006;5.926;2023-12-22T05:37:58;99438.81;;;4.66;87.11
70909;BME280;58554;52.006;5.926;2023-12-22T05:40:24;99437.16;;;4.65;87.33
70909;BME280;58554;52.006;5.926;2023-12-22T05:42:51;99439.66;;;4.66;87.39
70909;BME280;58554;52.006;5.926;2023-12-22T05:45:17;99429.94;;;4.68;87.36
70909;BME280;58554;52.006;5.926;2023-12-22T05:47:46;99433.34;;;4.71;87.23
70909;BME280;58554;52.006;5.926;2023-12-22T05:50:13;99426.16;;;4.74;87.57
70909;BME280;58554;52.006;5.926;2023-12-22T05:52:39;99432.09;;;4.78;87.32
70909;BME280;58554;52.006;5.926;2023-12-22T05:55:06;99417.97;;;4.80;87.34
70909;BME280;58554;52.006;5.926;2023-12-22T05:57:33;99422.28;;;4.81;87.29
70909;BME280;58554;52.006;5.926;2023-12-22T05:59:59;99429.97;;;4.84;87.13
70909;BME280;58554;52.006;5.926;2023-12-22T06:02:26;99424.72;;;4.84;87.03
70909;BME280;58554;52.006;5.926;2023-12-22T06:04:55;99426.31;;;4.87;87.17
70909;BME280;58554;52.006;5.926;2023-12-22T06:07:21;99426.31;;;4.87;87.11
70909;BME280;58554;52.006;5.926;2023-12-22T06:09:48;99418.31;;;4.90;86.76
70909;BME280;58554;52.006;5.926;2023-12-22T06:12:14;99409.50;;;4.91;86.98
70909;BME280;58554;52.006;5.926;2023-12-22T06:14:41;99411.22;;;4.92;87.00
70909;BME280;58554;52.006;5.926;2023-12-22T06:17:07;99416.22;;;4.97;87.02
70909;BME280;58554;52.006;5.926;2023-12-22T06:19:35;99418.66;;;5.00;86.92
70909;BME280;58554;52.006;5.926;2023-12-22T06:22:04;99411.56;;;5.02;86.75
70909;BME280;58554;52.006;5.926;2023-12-22T06:24:31;99410.63;;;5.03;86.88
70909;BME280;58554;52.006;5.926;2023-12-22T06:26:57;99417.56;;;5.04;86.85
70909;BME280;58554;52.006;5.926;2023-12-22T06:29:24;99423.47;;;5.07;86.75
70909;BME280;58554;52.006;5.926;2023-12-22T06:31:50;99408.50;;;5.10;86.64
70909;BME280;58554;52.006;5.926;2023-12-22T06:34:17;99398.72;;;5.13;86.67
70909;BME280;58554;52.006;5.926;2023-12-22T06:36:43;99418.66;;;5.16;86.85
70909;BME280;58554;52.006;5.926;2023-12-22T06:39:12;99410.72;;;5.17;86.66
70909;BME280;58554;52.006;5.926;2023-12-22T06:41:39;99408.66;;;5.22;87.11
70909;BME280;58554;52.006;5.926;2023-12-22T06:44:05;99406.72;;;5.26;86.99
70909;BME280;58554;52.006;5.926;2023-12-22T06:46:32;99415.25;;;5.30;87.09
70909;BME280;58554;52.006;5.926;2023-12-22T06:48:58;99397.47;;;5.35;87.21
70909;BME280;58554;52.006;5.926;2023-12-22T06:51:26;99410.22;;;5.41;86.95
70909;BME280;58554;52.006;5.926;2023-12-22T06:53:54;99402.09;;;5.45;87.10
70909;BME280;58554;52.006;5.926;2023-12-22T06:56:24;99403.53;;;5.51;87.07
70909;BME280;58554;52.006;5.926;2023-12-22T06:58:52;99399.69;;;5.57;87.01
70909;BME280;58554;52.006;5.926;2023-12-22T07:01:21;99410.75;;;5.62;87.10
70909;BME280;58554;52.006;5.926;2023-12-22T07:03:49;99407.84;;;5.66;86.93
70909;BME280;58554;52.006;5.926;2023-12-22T07:06:16;99416.22;;;5.73;86.85
70909;BME280;58554;52.006;5.926;2023-12-22T07:08:44;99409.88;;;5.77;86.95
70909;BME280;58554;52.006;5.926;2023-12-22T07:11:11;99406.13;;;5.81;86.72
70909;BME280;58554;52.006;5.926;2023-12-22T07:13:40;99401.53;;;5.85;86.89
70909;BME280;58554;52.006;5.926;2023-12-22T07:16:06;99402.19;;;5.88;86.84
70909;BME280;58554;52.006;5.926;2023-12-22T07:18:33;99394.03;;;5.93;86.55
70909;BME280;58554;52.006;5.926;2023-12-22T07:21:00;99399.88;;;5.98;86.71
70909;BME280;58554;52.006;5.926;2023-12-22T07:23:26;99398.75;;;6.02;86.58
70909;BME280;58554;52.006;5.926;2023-12-22T07:25:53;99412.63;;;6.04;86.60
70909;BME280;58554;52.006;5.926;2023-12-22T07:28:19;99408.88;;;6.08;86.58
70909;BME280;58554;52.006;5.926;2023-12-22T07:30:48;99420.97;;;6.11;86.41
70909;BME280;58554;52.006;5.926;2023-12-22T07:33:15;99406.81;;;6.14;86.40
70909;BME280;58554;52.006;5.926;2023-12-22T07:35:41;99419.75;;;6.17;86.32
70909;BME280;58554;52.006;5.926;2023-12-22T07:38:08;99417.75;;;6.20;86.22
70909;BME280;58554;52.006;5.926;2023-12-22T07:40:34;99414.97;;;6.23;86.20
70909;BME280;58554;52.006;5.926;2023-12-22T07:43:01;99415.72;;;6.25;86.11
70909;BME280;58554;52.006;5.926;2023-12-22T07:45:27;99405.97;;;6.27;86.27
70909;BME280;58554;52.006;5.926;2023-12-22T07:47:56;99413.63;;;6.30;86.15
70909;BME280;58554;52.006;5.926;2023-12-22T07:50:23;99415.34;;;6.32;86.18
70909;BME280;58554;52.006;5.926;2023-12-22T07:52:49;99410.72;;;6.35;86.07
70909;BME280;58554;52.006;5.926;2023-12-22T07:55:16;99398.34;;;6.37;86.25
70909;BME280;58554;52.006;5.926;2023-12-22T07:57:42;99404.25;;;6.41;86.03
70909;BME280;58554;52.006;5.926;2023-12-22T08:00:10;99404.19;;;6.42;85.96
70909;BME280;58554;52.006;5.926;2023-12-22T08:02:37;99406.72;;;6.44;86.05
70909;BME280;58554;52.006;5.926;2023-12-22T08:05:08;99415.22;;;6.47;86.08
70909;BME280;58554;52.006;5.926;2023-12-22T08:07:35;99429.09;;;6.49;85.65
70909;BME280;58554;52.006;5.926;2023-12-22T08:10:02;99428.09;;;6.52;85.94
70909;BME280;58554;52.006;5.926;2023-12-22T08:12:29;99427.88;;;6.55;85.96
70909;BME280;58554;52.006;5.926;2023-12-22T08:14:56;99419.78;;;6.58;85.71
70909;BME280;58554;52.006;5.926;2023-12-22T08:17:22;99444.09;;;6.62;85.53
70909;BME280;58554;52.006;5.926;2023-12-22T08:19:49;99444.00;;;6.63;85.81
70909;BME280;58554;52.006;5.926;2023-12-22T08:22:18;99414.28;;;6.63;85.53
70909;BME280;58554;52.006;5.926;2023-12-22T08:24:44;99424.22;;;6.58;85.53
70909;BME280;58554;52.006;5.926;2023-12-22T08:27:11;99429.00;;;6.51;85.58
70909;BME280;58554;52.006;5.926;2023-12-22T08:29:37;99423.31;;;6.44;85.74
70909;BME280;58554;52.006;5.926;2023-12-22T08:32:04;99407.94;;;6.38;86.10
70909;BME280;58554;52.006;5.926;2023-12-22T08:34:31;99412.50;;;6.35;86.09
70909;BME280;58554;52.006;5.926;2023-12-22T08:36:57;99418.81;;;6.32;86.48
70909;BME280;58554;52.006;5.926;2023-12-22T08:39:26;99406.50;;;6.33;86.78
70909;BME280;58554;52.006;5.926;2023-12-22T08:41:53;99406.59;;;6.31;86.60
70909;BME280;58554;52.006;5.926;2023-12-22T08:44:20;99392.63;;;6.30;86.63
70909;BME280;58554;52.006;5.926;2023-12-22T08:46:46;99384.75;;;6.30;86.71
70909;BME280;58554;52.006;5.926;2023-12-22T08:49:13;99381.97;;;6.34;86.69
70909;BME280;58554;52.006;5.926;2023-12-22T08:51:39;99381.75;;;6.37;86.83
70909;BME280;58554;52.006;5.926;2023-12-22T08:54:06;99390.38;;;6.39;86.77
70909;BME280;58554;52.006;5.926;2023-12-22T08:56:35;99389.34;;;6.41;87.01
70909;BME280;58554;52.006;5.926;2023-12-22T08:59:01;99384.75;;;6.45;86.77
70909;BME280;58554;52.006;5.926;2023-12-22T09:01:28;99396.66;;;6.50;87.02
70909;BME280;58554;52.006;5.926;2023-12-22T09:03:54;99385.03;;;6.55;87.03
70909;BME280;58554;52.006;5.926;2023-12-22T09:06:22;99367.41;;;6.57;86.73
70909;BME280;58554;52.006;5.926;2023-12-22T09:08:50;99379.47;;;6.59;86.85
70909;BME280;58554;52.006;5.926;2023-12-22T09:11:17;99371.38;;;6.62;86.95
70909;BME280;58554;52.006;5.926;2023-12-22T09:13:48;99375.63;;;6.65;87.25
70909;BME280;58554;52.006;5.926;2023-12-22T09:16:20;99370.06;;;6.69;86.97
70909;BME280;58554;52.006;5.926;2023-12-22T09:18:47;99360.31;;;6.72;87.16
70909;BME280;58554;52.006;5.926;2023-12-22T09:21:14;99368.09;;;6.73;87.01
70909;BME280;58554;52.006;5.926;2023-12-22T09:23:40;99375.03;;;6.74;87.08
70909;BME280;58554;52.006;5.926;2023-12-22T09:26:07;99368.00;;;6.75;87.40
70909;BME280;58554;52.006;5.926;2023-12-22T09:28:33;99374.94;;;6.76;87.38
70909;BME280;58554;52.006;5.926;2023-12-22T09:31:03;99375.78;;;6.76;87.61
70909;BME280;58554;52.006;5.926;2023-12-22T09:33:29;99371.19;;;6.80;87.48
70909;BME280;58554;52.006;5.926;2023-12-22T09:35:56;99369.22;;;6.83;87.74
70909;BME280;58554;52.006;5.926;2023-12-22T09:38:22;99375.09;;;6.87;87.67
70909;BME280;58554;52.006;5.926;2023-12-22T09:40:49;99358.19;;;6.91;87.78
70909;BME280;58554;52.006;5.926;2023-12-22T09:43:16;99362.00;;;7.00;87.74
70909;BME280;58554;52.006;5.926;2023-12-22T09:45:46;99362.56;;;7.05;88.07
70909;BME280;58554;52.006;5.926;2023-12-22T09:48:17;99376.03;;;7.13;87.88
70909;BME280;58554;52.006;5.926;2023-12-22T09:50:44;99365.88;;;7.21;87.95
70909;BME280;58554;52.006;5.926;2023-12-22T09:53:13;99367.88;;;7.30;87.67
70909;BME280;58554;52.006;5.926;2023-12-22T09:55:42;99354.22;;;7.38;87.77
70909;BME280;58554;52.006;5.926;2023-12-22T09:58:10;99357.31;;;7.45;87.55
70909;BME280;58554;52.006;5.926;2023-12-22T10:00:39;99379.00;;;7.48;87.40
70909;BME280;58554;52.006;5.926;2023-12-22T10:03:07;99363.00;;;7.51;87.16
70909;BME280;58554;52.006;5.926;2023-12-22T10:05:38;99358.28;;;7.57;86.83
70909;BME280;58554;52.006;5.926;2023-12-22T10:08:06;99363.53;;;7.57;86.75
70909;BME280;58554;52.006;5.926;2023-12-22T10:10:41;99360.78;;;7.58;86.61
70909;BME280;58554;52.006;5.926;2023-12-22T10:13:10;99364.28;;;7.59;86.61
70909;BME280;58554;52.006;5.926;2023-12-22T10:15:39;99357.97;;;7.61;86.36
70909;BME280;58554;52.006;5.926;2023-12-22T10:18:11;99368.41;;;7.63;86.15
70909;BME280;58554;52.006;5.926;2023-12-22T10:20:42;99365.84;;;7.61;85.91
70909;BME280;58554;52.006;5.926;2023-12-22T10:23:10;99367.66;;;7.61;86.31
70909;BME280;58554;52.006;5.926;2023-12-22T10:25:40;99366.69;;;7.62;86.15
70909;BME280;58554;52.006;5.926;2023-12-22T10:28:11;99367.53;;;7.62;86.24
70909;BME280;58554;52.006;5.926;2023-12-22T10:30:37;99370.06;;;7.64;86.20
70909;BME280;58554;52.006;5.926;2023-12-22T10:33:06;99365.44;;;7.67;86.38
70909;BME280;58554;52.006;5.926;2023-12-22T10:35:33;99370.28;;;7.74;86.15
70909;BME280;58554;52.006;5.926;2023-12-22T10:38:05;99358.38;;;7.81;86.24
70909;BME280;58554;52.006;5.926;2023-12-22T10:40:31;99365.13;;;7.85;86.29
70909;BME280;58554;52.006;5.926;2023-12-22T10:42:58;99361.44;;;7.87;86.28
70909;BME280;58554;52.006;5.926;2023-12-22T10:45:25;99365.53;;;7.91;86.64
70909;BME280;58554;52.006;5.926;2023-12-22T10:47:52;99348.50;;;7.97;86.65
70909;BME280;58554;52.006;5.926;2023-12-22T10:50:19;99347.31;;;8.01;86.55
70909;BME280;58554;52.006;5.926;2023-12-22T10:52:49;99354.69;;;8.09;86.51
70909;BME280;58554;52.006;5.926;2023-12-22T10:55:19;99353.31;;;8.16;86.55
70909;BME280;58554;52.006;5.926;2023-12-22T10:57:45;99358.25;;;8.21;86.39
70909;BME280;58554;52.006;5.926;2023-12-22T11:00:15;99347.72;;;8.21;86.46
70909;BME280;58554;52.006;5.926;2023-12-22T11:02:43;99349.75;;;8.17;86.50
70909;BME280;58554;52.006;5.926;2023-12-22T11:05:15;99347.94;;;8.18;86.53
70909;BME280;58554;52.006;5.926;2023-12-22T11:07:41;99340.28;;;8.15;86.39
70909;BME280;58554;52.006;5.926;2023-12-22T11:10:21;99344.06;;;8.10;86.74
70909;BME280;58554;52.006;5.926;2023-12-22T11:12:47;99355.53;;;8.09;86.98
70909;BME280;58554;52.006;5.926;2023-12-22T11:15:15;99349.63;;;8.06;86.86
70909;BME280;58554;52.006;5.926;2023-12-22T11:17:44;99362.06;;;8.04;86.88
70909;BME280;58554;52.006;5.926;2023-12-22T11:20:14;99339.66;;;7.98;87.08
70909;BME280;58554;52.006;5.926;2023-12-22T11:22:42;99348.50;;;7.97;87.16
70909;BME280;58554;52.006;5.926;2023-12-22T11:25:10;99353.84;;;7.96;87.05
70909;BME280;58554;52.006;5.926;2023-12-22T11:27:40;99346.69;;;7.98;87.30
70909;BME280;58554;52.006;5.926;2023-12-22T11:30:11;99353.66;;;7.99;87.12
70909;BME280;58554;52.006;5.926;2023-12-22T11:32:40;99359.97;;;7.96;87.43
70909;BME280;58554;52.006;5.926;2023-12-22T11:35:10;99351.22;;;7.96;87.69
70909;BME280;58554;52.006;5.926;2023-12-22T11:37:38;99338.94;;;7.96;87.51
70909;BME280;58554;52.006;5.926;2023-12-22T11:40:07;99344.78;;;8.00;87.51
70909;BME280;58554;52.006;5.926;2023-12-22T11:42:36;99341.88;;;8.04;87.64
70909;BME280;58554;52.006;5.926;2023-12-22T11:45:09;99354.69;;;8.09;87.77
70909;BME280;58554;52.006;5.926;2023-12-22T11:47:37;99355.09;;;8.16;87.60
70909;BME280;58554;52.006;5.926;2023-12-22T11:50:08;99344.97;;;8.22;87.71
70909;BME280;58554;52.006;5.926;2023-12-22T11:52:35;99334.00;;;8.28;87.41
70909;BME280;58554;52.006;5.926;2023-12-22T11:55:02;99344.34;;;8.31;87.28
70909;BME280;58554;52.006;5.926;2023-12-22T11:57:29;99333.91;;;8.30;87.15
70909;BME280;58554;52.006;5.926;2023-12-22T12:00:38;99334.00;;;8.28;86.99
70909;BME280;58554;52.006;5.926;2023-12-22T12:03:06;99317.72;;;8.23;87.20
70909;BME280;58554;52.006;5.926;2023-12-22T12:05:33;99339.31;;;8.16;87.11
70909;BME280;58554;52.006;5.926;2023-12-22T12:08:06;99327.31;;;8.11;87.56
70909;BME280;58554;52.006;5.926;2023-12-22T12:10:51;99320.69;;;8.19;87.75
70909;BME280;58554;52.006;5.926;2023-12-22T12:13:23;99314.84;;;8.26;87.62
70909;BME280;58554;52.006;5.926;2023-12-22T12:15:52;99328.66;;;8.30;87.33
70909;BME280;58554;52.006;5.926;2023-12-22T12:18:22;99305.06;;;8.28;87.00
70909;BME280;58554;52.006;5.926;2023-12-22T12:20:50;99309.59;;;8.26;86.86
70909;BME280;58554;52.006;5.926;2023-12-22T12:23:16;99298.41;;;8.23;87.14
70909;BME280;58554;52.006;5.926;2023-12-22T12:25:43;99294.03;;;8.23;87.38
70909;BME280;58554;52.006;5.926;2023-12-22T12:28:10;99302.53;;;8.27;87.38
70909;BME280;58554;52.006;5.926;2023-12-22T12:30:37;99306.50;;;8.32;87.72
70909;BME280;58554;52.006;5.926;2023-12-22T12:33:11;99300.06;;;8.37;87.56
70909;BME280;58554;52.006;5.926;2023-12-22T12:35:41;99280.56;;;8.39;87.39
70909;BME280;58554;52.006;5.926;2023-12-22T12:38:07;99274.25;;;8.42;87.45
70909;BME280;58554;52.006;5.926;2023-12-22T12:40:37;99277.50;;;8.45;87.42
70909;BME280;58554;52.006;5.926;2023-12-22T12:43:06;99285.28;;;8.47;87.27
70909;BME280;58554;52.006;5.926;2023-12-22T12:45:33;99280.75;;;8.49;87.26
70909;BME280;58554;52.006;5.926;2023-12-22T12:48:00;99273.59;;;8.51;87.27
70909;BME280;58554;52.006;5.926;2023-12-22T12:50:31;99269.66;;;8.57;87.21
70909;BME280;58554;52.006;5.926;2023-12-22T12:52:57;99264.06;;;8.61;87.11
70909;BME280;58554;52.006;5.926;2023-12-22T12:55:25;99274.03;;;8.69;87.09
70909;BME280;58554;52.006;5.926;2023-12-22T12:57:53;99278.13;;;8.73;86.64
70909;BME280;58554;52.006;5.926;2023-12-22T13:00:26;99273.34;;;8.78;86.37
70909;BME280;58554;52.006;5.926;2023-12-22T13:02:53;99274.69;;;8.84;86.26
70909;BME280;58554;52.006;5.926;2023-12-22T13:05:21;99273.00;;;8.83;86.07
70909;BME280;58554;52.006;5.926;2023-12-22T13:07:50;99288.72;;;8.84;86.22
70909;BME280;58554;52.006;5.926;2023-12-22T13:10:21;99271.25;;;8.83;86.37
70909;BME280;58554;52.006;5.926;2023-12-22T13:12:50;99290.63;;;8.82;86.12